| time (UTC) | temp F | wind direction | speed MPH | gust MPH | rain 1hr in | rain 24hr in | rain mn in | humidity % | barometer mb |
| 20260507234542 | 43 | 300 | 5.0 | 10.0 | 0.00 | 0.00 | 0.00 | 64 | 1010.9 |
| 20260507233041 | 45 | 308 | 5.0 | 12.0 | 0.00 | 0.00 | 0.00 | 54 | 1010.5 |
| 20260507231541 | 48 | 299 | 5.0 | 10.0 | 0.00 | 0.00 | 0.00 | 43 | 1009.8 |
| 20260507230042 | 49 | 319 | 3.0 | 9.0 | 0.00 | 0.00 | 0.00 | 41 | 1009.6 |
| 20260507224557 | 50 | 344 | 4.0 | 8.0 | 0.00 | 0.00 | 0.00 | 39 | 1009.6 |
| 20260507223045 | 50 | 314 | 1.0 | 10.0 | 0.00 | 0.00 | 0.00 | 42 | 1009.7 |
| 20260507221538 | 49 | 274 | 1.0 | 10.0 | 0.00 | 0.00 | 0.00 | 40 | 1009.8 |
| 20260507220037 | 50 | 297 | 3.0 | 14.0 | 0.00 | 0.00 | 0.00 | 40 | 1009.8 |
| 20260507214536 | 51 | 303 | 4.0 | 10.0 | 0.00 | 0.00 | 0.00 | 38 | 1009.7 |
| 20260507213040 | 51 | 300 | 1.0 | 10.0 | 0.00 | 0.00 | 0.00 | 41 | 1009.6 |
| 20260507211546 | 52 | 305 | 2.0 | 15.0 | 0.00 | 0.00 | 0.00 | 37 | 1009.8 |
| 20260507210038 | 51 | 247 | 4.0 | 13.0 | 0.00 | 0.00 | 0.00 | 40 | 1009.7 |
| 20260507204534 | 51 | 252 | 3.0 | 16.0 | 0.00 | 0.00 | 0.00 | 36 | 1009.8 |
| 20260507203032 | 50 | 288 | 3.0 | 10.0 | 0.00 | 0.00 | 0.00 | 38 | 1010.0 |
| 20260507201532 | 52 | 280 | 5.0 | 11.0 | 0.00 | 0.00 | 0.00 | 36 | 1010.1 |
| 20260507200030 | 51 | 220 | 7.0 | 17.0 | 0.00 | 0.00 | 0.00 | 37 | 1010.2 |
| 20260507194536 | 51 | 266 | 2.0 | 12.0 | 0.00 | 0.00 | 0.00 | 37 | 1010.3 |
| 20260507193034 | 50 | 316 | 3.0 | 14.0 | 0.00 | 0.00 | 0.00 | 38 | 1010.4 |
| 20260507191528 | 50 | 194 | 4.0 | 14.0 | 0.00 | 0.00 | 0.00 | 40 | 1010.6 |
| 20260507190032 | 52 | 292 | 6.0 | 11.0 | 0.00 | 0.00 | 0.00 | 37 | 1010.5 |
| 20260507184525 | 50 | 304 | 3.0 | 13.0 | 0.00 | 0.00 | 0.00 | 40 | 1010.6 |
| 20260507183025 | 49 | 274 | 4.0 | 16.0 | 0.00 | 0.00 | 0.00 | 40 | 1010.7 |
| 20260507181521 | 48 | 300 | 3.0 | 11.0 | 0.00 | 0.00 | 0.00 | 38 | 1010.7 |
| 20260507180020 | 49 | 199 | 3.0 | 11.0 | 0.00 | 0.00 | 0.00 | 41 | 1010.7 |
| 20260507174519 | 50 | 232 | 3.0 | 10.0 | 0.00 | 0.00 | 0.00 | 37 | 1010.9 |
| 20260507173016 | 48 | 206 | 3.0 | 12.0 | 0.00 | 0.00 | 0.00 | 43 | 1011.0 |
| 20260507171512 | 48 | 241 | 7.0 | 14.0 | 0.00 | 0.00 | 0.00 | 46 | 1011.3 |
| 20260507170010 | 48 | 203 | 4.0 | 11.0 | 0.00 | 0.00 | 0.00 | 48 | 1011.4 |
| 20260507164510 | 47 | 309 | 5.0 | 10.0 | 0.00 | 0.00 | 0.00 | 47 | 1011.7 |
| 20260507163005 | 46 | 257 | 5.0 | 11.0 | 0.00 | 0.00 | 0.00 | 51 | 1011.9 |
| 20260507161503 | 45 | 225 | 2.0 | 12.0 | 0.00 | 0.00 | 0.00 | 51 | 1012.2 |
| 20260507160109 | 46 | 206 | 3.0 | 9.0 | 0.00 | 0.00 | 0.00 | 53 | 1012.0 |
| 20260507154559 | 43 | 205 | 3.0 | 7.0 | 0.00 | 0.00 | 0.00 | 55 | 1012.3 |
| 20260507153101 | 44 | 260 | 4.0 | 11.0 | 0.00 | 0.00 | 0.00 | 55 | 1012.3 |
| 20260507151555 | 44 | 208 | 4.0 | 7.0 | 0.00 | 0.00 | 0.00 | 63 | 1012.3 |
| 20260507150053 | 41 | 316 | 2.0 | 6.0 | 0.00 | 0.00 | 0.00 | 71 | 1012.5 |
| 20260507144552 | 41 | 265 | 2.0 | 7.0 | 0.00 | 0.00 | 0.00 | 75 | 1012.7 |
| 20260507143051 | 41 | 232 | 1.0 | 7.0 | 0.00 | 0.00 | 0.00 | 75 | 1012.7 |
| 20260507141555 | 41 | 287 | 3.0 | 9.0 | 0.00 | 0.00 | 0.00 | 76 | 1012.8 |
| 20260507140101 | 41 | 207 | 2.0 | 7.0 | 0.00 | 0.00 | 0.00 | 80 | 1012.9 |
| 20260507134544 | 39 | 227 | 3.0 | 7.0 | 0.00 | 0.00 | 0.00 | 80 | 1013.0 |
| 20260507133043 | 38 | 217 | 0.0 | 5.0 | 0.00 | 0.00 | 0.00 | 80 | 1013.0 |
| 20260507131546 | 38 | 240 | 3.0 | 8.0 | 0.00 | 0.00 | 0.00 | 79 | 1013.0 |
| 20260507130039 | 38 | 245 | 3.0 | 9.0 | 0.00 | 0.00 | 0.00 | 76 | 1013.0 |
| 20260507124538 | 39 | 240 | 2.0 | 6.0 | 0.00 | 0.00 | 0.00 | 73 | 1012.9 |
| 20260507123036 | 38 | 247 | 2.0 | 4.0 | 0.00 | 0.00 | 0.00 | 73 | 1012.8 |
| 20260507121535 | 38 | 217 | 1.0 | 4.0 | 0.00 | 0.00 | 0.00 | 75 | 1012.9 |
| 20260507120033 | 38 | 236 | 0.0 | 3.0 | 0.00 | 0.00 | 0.00 | 75 | 1012.7 |
| 20260507114533 | 37 | 215 | 0.0 | 3.0 | 0.00 | 0.00 | 0.00 | 75 | 1012.7 |
| 20260507113036 | 37 | 200 | 1.0 | 5.0 | 0.00 | 0.00 | 0.00 | 75 | 1012.5 |
| 20260507111531 | 37 | 217 | 0.0 | 4.0 | 0.00 | 0.00 | 0.00 | 75 | 1012.5 |
| 20260507110031 | 37 | 205 | 1.0 | 4.0 | 0.00 | 0.00 | 0.00 | 75 | 1012.5 |
| 20260507104528 | 37 | 229 | 0.0 | 4.0 | 0.00 | 0.00 | 0.00 | 74 | 1012.4 |
| 20260507103026 | 37 | 209 | 1.0 | 5.0 | 0.00 | 0.00 | 0.00 | 74 | 1012.3 |
| 20260507101536 | 37 | 208 | 0.0 | 3.0 | 0.00 | 0.00 | 0.00 | 74 | 1012.3 |
| 20260507100030 | 37 | 226 | 0.0 | 3.0 | 0.00 | 0.00 | 0.00 | 74 | 1012.4 |
| 20260507094521 | 37 | 240 | 0.0 | 3.0 | 0.00 | 0.00 | 0.00 | 73 | 1012.4 |
| 20260507093026 | 37 | 229 | 0.0 | 3.0 | 0.00 | 0.00 | 0.00 | 73 | 1012.5 |
| 20260507091544 | 37 | 240 | 0.0 | 1.0 | 0.00 | 0.00 | 0.00 | 73 | 1012.6 |
| 20260507090017 | 37 | 250 | 0.0 | 3.0 | 0.00 | 0.00 | 0.00 | 72 | 1012.6 |
| 20260507084516 | 38 | 259 | 0.0 | 3.0 | 0.00 | 0.00 | 0.00 | 72 | 1012.6 |
| 20260507083020 | 38 | 211 | 0.0 | 0.0 | 0.00 | 0.00 | 0.00 | 71 | 1012.7 |
| 20260507081515 | 38 | 257 | 0.0 | 4.0 | 0.00 | 0.00 | 0.00 | 71 | 1012.7 |
| 20260507080011 | 38 | 251 | 1.0 | 4.0 | 0.00 | 0.00 | 0.00 | 70 | 1012.8 |
| 20260507074512 | 38 | 229 | 0.0 | 3.0 | 0.00 | 0.00 | 0.00 | 70 | 1012.8 |
| 20260507073009 | 38 | 203 | 0.0 | 3.0 | 0.00 | 0.00 | 0.00 | 69 | 1013.0 |
| 20260507071508 | 38 | 231 | 0.0 | 4.0 | 0.00 | 0.00 | 0.00 | 69 | 1013.1 |
| 20260507070004 | 37 | 229 | 0.0 | 2.0 | 0.00 | 0.00 | 0.00 | 69 | 1013.2 |
| 20260507064604 | 37 | 247 | 0.0 | 2.0 | 0.00 | 0.00 | 0.00 | 70 | 1013.3 |
| 20260507063103 | 37 | 245 | 0.0 | 1.0 | 0.00 | 0.00 | 0.00 | 70 | 1013.4 |
| 20260507061558 | 37 | 218 | 0.0 | 0.0 | 0.00 | 0.00 | 0.00 | 71 | 1013.6 |
| 20260507060059 | 37 | 218 | 0.0 | 0.0 | 0.00 | 0.00 | 0.00 | 70 | 1013.7 |
| 20260507054556 | 38 | 218 | 0.0 | 0.0 | 0.00 | 0.00 | 0.00 | 68 | 1013.9 |
| 20260507053054 | 38 | 218 | 0.0 | 0.0 | 0.00 | 0.00 | 0.00 | 66 | 1014.1 |
| 20260507051551 | 38 | 218 | 0.0 | 1.0 | 0.00 | 0.00 | 0.00 | 65 | 1014.1 |
| 20260507050049 | 38 | 227 | 0.0 | 2.0 | 0.00 | 0.00 | 0.00 | 65 | 1014.2 |
| 20260507044550 | 38 | 234 | 0.0 | 0.0 | 0.00 | 0.00 | 0.00 | 65 | 1014.2 |
| 20260507043047 | 38 | 223 | 0.0 | 0.0 | 0.00 | 0.00 | 0.00 | 66 | 1014.3 |
| 20260507041544 | 38 | 242 | 0.0 | 0.0 | 0.00 | 0.00 | 0.00 | 66 | 1014.3 |
| 20260507040040 | 39 | 222 | 0.0 | 0.0 | 0.00 | 0.00 | 0.00 | 64 | 1014.4 |
| 20260507034545 | 39 | 222 | 0.0 | 0.0 | 0.00 | 0.00 | 0.00 | 64 | 1014.5 |
| 20260507033040 | 39 | 223 | 0.0 | 0.0 | 0.00 | 0.00 | 0.00 | 63 | 1014.5 |
| 20260507031542 | 39 | 216 | 0.0 | 1.0 | 0.00 | 0.00 | 0.00 | 62 | 1014.6 |
| 20260507030042 | 39 | 220 | 0.0 | 1.0 | 0.00 | 0.00 | 0.00 | 62 | 1014.7 |
| 20260507024538 | 39 | 244 | 0.0 | 3.0 | 0.00 | 0.00 | 0.00 | 61 | 1014.6 |
| 20260507023037 | 39 | 228 | 0.0 | 3.0 | 0.00 | 0.00 | 0.00 | 61 | 1014.7 |
| 20260507021539 | 39 | 238 | 0.0 | 2.0 | 0.00 | 0.00 | 0.00 | 60 | 1014.7 |
| 20260507020036 | 39 | 252 | 0.0 | 2.0 | 0.00 | 0.00 | 0.00 | 60 | 1014.7 |
| 20260507014548 | 40 | 248 | 2.0 | 5.0 | 0.00 | 0.00 | 0.00 | 58 | 1014.7 |
| 20260507013036 | 40 | 273 | 2.0 | 7.0 | 0.00 | 0.00 | 0.00 | 58 | 1014.6 |
| 20260507011536 | 40 | 303 | 0.0 | 5.0 | 0.00 | 0.00 | 0.00 | 58 | 1014.6 |
| 20260507010035 | 40 | 214 | 1.0 | 6.0 | 0.00 | 0.00 | 0.00 | 57 | 1014.6 |
| 20260507004533 | 41 | 299 | 3.0 | 12.0 | 0.00 | 0.00 | 0.00 | 57 | 1014.5 |
| 20260507003032 | 41 | 300 | 2.0 | 8.0 | 0.00 | 0.00 | 0.00 | 57 | 1014.5 |
| 20260507001534 | 41 | 274 | 0.0 | 3.0 | 0.00 | 0.00 | 0.00 | 59 | 1014.5 |
| 20260507000032 | 41 | 274 | 1.0 | 8.0 | 0.00 | 0.00 | 0.00 | 59 | 1014.5 |